sensor_id;sensor_type;location;lat;lon;timestamp;pressure;altitude;pressure_sealevel;temperature;humidity
4469;BME280;2247;42.666;23.292;2022-12-24T00:02:27;94248.53;;;9.30;62.08
4469;BME280;2247;42.666;23.292;2022-12-24T00:04:54;94240.91;;;9.33;61.80
4469;BME280;2247;42.666;23.292;2022-12-24T00:07:21;94239.03;;;9.34;61.48
4469;BME280;2247;42.666;23.292;2022-12-24T00:09:47;94244.84;;;9.21;61.37
4469;BME280;2247;42.666;23.292;2022-12-24T00:12:14;94250.63;;;9.28;61.23
4469;BME280;2247;42.666;23.292;2022-12-24T00:14:41;94246.38;;;9.52;60.74
4469;BME280;2247;42.666;23.292;2022-12-24T00:17:08;94258.75;;;9.41;60.74
4469;BME280;2247;42.666;23.292;2022-12-24T00:19:37;94256.44;;;9.15;61.66
4469;BME280;2247;42.666;23.292;2022-12-24T00:22:04;94250.94;;;9.11;61.75
4469;BME280;2247;42.666;23.292;2022-12-24T00:24:32;94258.00;;;9.21;61.94
4469;BME280;2247;42.666;23.292;2022-12-24T00:26:58;94252.22;;;9.14;61.89
4469;BME280;2247;42.666;23.292;2022-12-24T00:29:26;94255.88;;;9.38;61.76
4469;BME280;2247;42.666;23.292;2022-12-24T00:31:53;94241.88;;;9.58;60.98
4469;BME280;2247;42.666;23.292;2022-12-24T00:34:21;94236.09;;;9.66;60.92
4469;BME280;2247;42.666;23.292;2022-12-24T00:36:50;94228.41;;;9.79;60.83
4469;BME280;2247;42.666;23.292;2022-12-24T00:39:17;94238.88;;;9.89;60.15
4469;BME280;2247;42.666;23.292;2022-12-24T00:41:44;94247.25;;;10.02;59.93
4469;BME280;2247;42.666;23.292;2022-12-24T00:44:11;94240.91;;;10.08;59.18
4469;BME280;2247;42.666;23.292;2022-12-24T00:46:39;94239.03;;;10.13;59.15
4469;BME280;2247;42.666;23.292;2022-12-24T00:49:08;94241.16;;;10.11;59.19
4469;BME280;2247;42.666;23.292;2022-12-24T00:51:35;94240.88;;;10.18;58.73
4469;BME280;2247;42.666;23.292;2022-12-24T00:54:04;94234.78;;;10.27;58.38
4469;BME280;2247;42.666;23.292;2022-12-24T00:56:31;94246.59;;;10.35;58.20
4469;BME280;2247;42.666;23.292;2022-12-24T00:58:58;94248.66;;;10.38;58.11
4469;BME280;2247;42.666;23.292;2022-12-24T01:01:26;94240.28;;;10.36;58.18
4469;BME280;2247;42.666;23.292;2022-12-24T01:03:53;94250.78;;;10.41;58.09
4469;BME280;2247;42.666;23.292;2022-12-24T01:06:40;94245.47;;;10.46;57.82
4469;BME280;2247;42.666;23.292;2022-12-24T01:09:07;94231.53;;;10.41;57.77
4469;BME280;2247;42.666;23.292;2022-12-24T01:11:34;94247.06;;;10.42;58.18
4469;BME280;2247;42.666;23.292;2022-12-24T01:14:01;94256.78;;;10.47;57.59
4469;BME280;2247;42.666;23.292;2022-12-24T01:16:28;94262.06;;;10.47;57.49
4469;BME280;2247;42.666;23.292;2022-12-24T01:18:55;94257.03;;;10.50;57.56
4469;BME280;2247;42.666;23.292;2022-12-24T01:21:22;94253.13;;;10.43;57.49
4469;BME280;2247;42.666;23.292;2022-12-24T01:23:49;94244.94;;;10.44;57.77
4469;BME280;2247;42.666;23.292;2022-12-24T01:26:17;94238.59;;;10.50;57.45
4469;BME280;2247;42.666;23.292;2022-12-24T01:28:45;94225.66;;;10.54;57.71
4469;BME280;2247;42.666;23.292;2022-12-24T01:31:14;94225.94;;;10.52;57.24
4469;BME280;2247;42.666;23.292;2022-12-24T01:33:41;94220.16;;;10.50;56.42
4469;BME280;2247;42.666;23.292;2022-12-24T01:36:09;94232.84;;;10.43;55.53
4469;BME280;2247;42.666;23.292;2022-12-24T01:38:36;94241.59;;;10.34;55.21
4469;BME280;2247;42.666;23.292;2022-12-24T01:41:04;94241.00;;;9.87;57.18
4469;BME280;2247;42.666;23.292;2022-12-24T01:43:49;94244.97;;;9.85;57.45
4469;BME280;2247;42.666;23.292;2022-12-24T01:46:19;94254.28;;;9.52;58.59
4469;BME280;2247;42.666;23.292;2022-12-24T01:48:52;94241.06;;;9.62;58.63
4469;BME280;2247;42.666;23.292;2022-12-24T01:51:26;94238.44;;;9.67;58.38
4469;BME280;2247;42.666;23.292;2022-12-24T01:53:57;94239.53;;;9.51;58.81
4469;BME280;2247;42.666;23.292;2022-12-24T01:56:28;94249.25;;;9.61;58.27
4469;BME280;2247;42.666;23.292;2022-12-24T01:59:06;94244.72;;;9.76;58.06
4469;BME280;2247;42.666;23.292;2022-12-24T02:01:35;94229.66;;;9.92;57.65
4469;BME280;2247;42.666;23.292;2022-12-24T02:04:10;94227.56;;;9.89;57.34
4469;BME280;2247;42.666;23.292;2022-12-24T02:06:38;94218.13;;;9.83;57.58
4469;BME280;2247;42.666;23.292;2022-12-24T02:09:05;94225.47;;;9.86;57.73
4469;BME280;2247;42.666;23.292;2022-12-24T02:11:33;94227.84;;;9.87;57.33
4469;BME280;2247;42.666;23.292;2022-12-24T02:14:03;94223.91;;;9.85;57.68
4469;BME280;2247;42.666;23.292;2022-12-24T02:16:37;94224.16;;;9.88;57.37
4469;BME280;2247;42.666;23.292;2022-12-24T02:19:23;94227.31;;;9.85;57.21
4469;BME280;2247;42.666;23.292;2022-12-24T02:22:00;94226.00;;;9.88;57.25
4469;BME280;2247;42.666;23.292;2022-12-24T02:24:56;94236.25;;;9.89;57.19
4469;BME280;2247;42.666;23.292;2022-12-24T02:27:33;94231.00;;;9.84;57.50
4469;BME280;2247;42.666;23.292;2022-12-24T02:30:10;94224.94;;;9.94;57.07
4469;BME280;2247;42.666;23.292;2022-12-24T02:32:46;94237.59;;;9.87;57.19
4469;BME280;2247;42.666;23.292;2022-12-24T02:35:24;94226.53;;;9.85;57.44
4469;BME280;2247;42.666;23.292;2022-12-24T02:38:00;94234.50;;;9.65;57.62
4469;BME280;2247;42.666;23.292;2022-12-24T02:40:32;94229.78;;;9.67;57.73
4469;BME280;2247;42.666;23.292;2022-12-24T02:43:04;94223.94;;;9.70;57.47
4469;BME280;2247;42.666;23.292;2022-12-24T02:45:39;94221.56;;;9.78;57.51
4469;BME280;2247;42.666;23.292;2022-12-24T02:48:08;94221.66;;;9.53;57.77
4469;BME280;2247;42.666;23.292;2022-12-24T02:50:36;94210.63;;;9.51;58.49
4469;BME280;2247;42.666;23.292;2022-12-24T02:53:04;94206.38;;;9.60;57.87
4469;BME280;2247;42.666;23.292;2022-12-24T02:55:38;94212.66;;;9.64;58.50
4469;BME280;2247;42.666;23.292;2022-12-24T02:58:19;94206.13;;;9.52;58.23
4469;BME280;2247;42.666;23.292;2022-12-24T03:00:59;94206.41;;;9.50;58.54
4469;BME280;2247;42.666;23.292;2022-12-24T03:03:51;94209.56;;;9.42;57.75
4469;BME280;2247;42.666;23.292;2022-12-24T03:06:27;94212.16;;;9.57;56.75
4469;BME280;2247;42.666;23.292;2022-12-24T03:09:02;94218.50;;;9.51;56.98
4469;BME280;2247;42.666;23.292;2022-12-24T03:11:33;94205.38;;;9.46;57.57
4469;BME280;2247;42.666;23.292;2022-12-24T03:14:02;94214.38;;;9.15;58.37
4469;BME280;2247;42.666;23.292;2022-12-24T03:16:31;94216.22;;;9.19;58.23
4469;BME280;2247;42.666;23.292;2022-12-24T03:18:59;94211.25;;;9.13;58.45
4469;BME280;2247;42.666;23.292;2022-12-24T03:21:28;94213.31;;;9.16;58.68
4469;BME280;2247;42.666;23.292;2022-12-24T03:23:57;94214.91;;;9.17;58.51
4469;BME280;2247;42.666;23.292;2022-12-24T03:26:26;94207.25;;;9.30;57.91
4469;BME280;2247;42.666;23.292;2022-12-24T03:28:54;94209.34;;;9.38;56.81
4469;BME280;2247;42.666;23.292;2022-12-24T03:31:22;94209.34;;;9.28;57.18
4469;BME280;2247;42.666;23.292;2022-12-24T03:33:50;94212.25;;;9.27;57.29
4469;BME280;2247;42.666;23.292;2022-12-24T03:36:17;94210.69;;;9.26;57.02
4469;BME280;2247;42.666;23.292;2022-12-24T03:38:44;94210.72;;;8.80;58.60
4469;BME280;2247;42.666;23.292;2022-12-24T03:41:11;94217.28;;;8.32;60.55
4469;BME280;2247;42.666;23.292;2022-12-24T03:43:38;94211.22;;;8.26;61.02
4469;BME280;2247;42.666;23.292;2022-12-24T03:46:06;94226.69;;;8.28;61.62
4469;BME280;2247;42.666;23.292;2022-12-24T03:48:34;94209.66;;;8.30;61.53
4469;BME280;2247;42.666;23.292;2022-12-24T03:51:03;94222.81;;;8.56;59.72
4469;BME280;2247;42.666;23.292;2022-12-24T03:53:30;94221.25;;;8.65;59.16
4469;BME280;2247;42.666;23.292;2022-12-24T03:55:57;94218.63;;;8.50;58.90
4469;BME280;2247;42.666;23.292;2022-12-24T03:58:24;94226.50;;;8.55;59.65
4469;BME280;2247;42.666;23.292;2022-12-24T04:00:52;94219.66;;;8.74;59.16
4469;BME280;2247;42.666;23.292;2022-12-24T04:03:19;94226.75;;;8.89;58.59
4469;BME280;2247;42.666;23.292;2022-12-24T04:05:45;94241.19;;;9.06;57.82
4469;BME280;2247;42.666;23.292;2022-12-24T04:08:14;94235.94;;;9.01;57.09
4469;BME280;2247;42.666;23.292;2022-12-24T04:10:41;94243.03;;;8.81;57.89
4469;BME280;2247;42.666;23.292;2022-12-24T04:13:08;94250.94;;;8.81;57.54
4469;BME280;2247;42.666;23.292;2022-12-24T04:15:34;94249.09;;;8.86;57.50
4469;BME280;2247;42.666;23.292;2022-12-24T04:18:01;94249.09;;;8.91;57.67
4469;BME280;2247;42.666;23.292;2022-12-24T04:20:28;94254.09;;;9.03;57.69
4469;BME280;2247;42.666;23.292;2022-12-24T04:22:55;94250.13;;;9.11;57.57
4469;BME280;2247;42.666;23.292;2022-12-24T04:25:23;94249.06;;;9.22;57.00
4469;BME280;2247;42.666;23.292;2022-12-24T04:27:50;94250.63;;;9.28;57.08
4469;BME280;2247;42.666;23.292;2022-12-24T04:30:17;94252.19;;;9.44;56.85
4469;BME280;2247;42.666;23.292;2022-12-24T04:32:44;94262.19;;;9.37;56.60
4469;BME280;2247;42.666;23.292;2022-12-24T04:35:11;94261.94;;;9.33;56.68
4469;BME280;2247;42.666;23.292;2022-12-24T04:37:38;94269.03;;;9.33;56.89
4469;BME280;2247;42.666;23.292;2022-12-24T04:40:05;94272.72;;;9.27;57.02
4469;BME280;2247;42.666;23.292;2022-12-24T04:42:35;94269.84;;;9.13;57.28
4469;BME280;2247;42.666;23.292;2022-12-24T04:45:02;94275.91;;;8.83;58.03
4469;BME280;2247;42.666;23.292;2022-12-24T04:47:29;94265.63;;;8.72;58.28
4469;BME280;2247;42.666;23.292;2022-12-24T04:49:56;94268.28;;;8.77;58.92
4469;BME280;2247;42.666;23.292;2022-12-24T04:52:23;94266.72;;;8.91;58.46
4469;BME280;2247;42.666;23.292;2022-12-24T04:54:50;94262.75;;;9.08;58.02
4469;BME280;2247;42.666;23.292;2022-12-24T04:57:17;94254.84;;;9.24;57.13
4469;BME280;2247;42.666;23.292;2022-12-24T04:59:45;94254.06;;;9.18;57.07
4469;BME280;2247;42.666;23.292;2022-12-24T05:02:12;94258.03;;;9.05;57.27
4469;BME280;2247;42.666;23.292;2022-12-24T05:04:40;94247.78;;;9.04;57.42
4469;BME280;2247;42.666;23.292;2022-12-24T05:07:07;94234.91;;;8.77;58.69
4469;BME280;2247;42.666;23.292;2022-12-24T05:09:34;94249.09;;;8.86;57.97
4469;BME280;2247;42.666;23.292;2022-12-24T05:12:02;94237.00;;;8.65;58.65
4469;BME280;2247;42.666;23.292;2022-12-24T05:14:29;94236.66;;;8.21;60.75
4469;BME280;2247;42.666;23.292;2022-12-24T05:16:57;94229.22;;;7.93;62.63
4469;BME280;2247;42.666;23.292;2022-12-24T05:19:24;94233.50;;;8.19;61.55
4469;BME280;2247;42.666;23.292;2022-12-24T05:21:51;94224.84;;;8.23;61.27
4469;BME280;2247;42.666;23.292;2022-12-24T05:24:32;94227.50;;;8.28;61.50
4469;BME280;2247;42.666;23.292;2022-12-24T05:27:16;94231.22;;;8.48;60.72
4469;BME280;2247;42.666;23.292;2022-12-24T05:29:43;94237.53;;;8.62;59.78
4469;BME280;2247;42.666;23.292;2022-12-24T05:32:11;94246.19;;;8.73;59.92
4469;BME280;2247;42.666;23.292;2022-12-24T05:34:40;94253.28;;;8.72;59.35
4469;BME280;2247;42.666;23.292;2022-12-24T05:37:07;94248.81;;;8.73;59.17
4469;BME280;2247;42.666;23.292;2022-12-24T05:39:34;94240.16;;;8.82;59.07
4469;BME280;2247;42.666;23.292;2022-12-24T05:42:00;94239.63;;;8.90;58.55
4469;BME280;2247;42.666;23.292;2022-12-24T05:44:27;94239.09;;;9.03;57.96
4469;BME280;2247;42.666;23.292;2022-12-24T05:46:54;94240.16;;;9.02;57.90
4469;BME280;2247;42.666;23.292;2022-12-24T05:49:22;94236.47;;;9.08;57.98
4469;BME280;2247;42.666;23.292;2022-12-24T05:51:49;94224.13;;;9.04;58.49
4469;BME280;2247;42.666;23.292;2022-12-24T05:54:16;94220.19;;;9.12;58.44
4469;BME280;2247;42.666;23.292;2022-12-24T05:56:42;94226.44;;;9.21;58.54
4469;BME280;2247;42.666;23.292;2022-12-24T05:59:09;94220.97;;;9.12;58.02
4469;BME280;2247;42.666;23.292;2022-12-24T06:01:36;94235.13;;;9.21;57.98
4469;BME280;2247;42.666;23.292;2022-12-24T06:04:03;94244.34;;;9.24;58.00
4469;BME280;2247;42.666;23.292;2022-12-24T06:06:31;94240.16;;;9.02;58.69
4469;BME280;2247;42.666;23.292;2022-12-24T06:08:59;94245.13;;;8.99;58.90
4469;BME280;2247;42.666;23.292;2022-12-24T06:11:26;94248.56;;;8.79;58.92
4469;BME280;2247;42.666;23.292;2022-12-24T06:13:53;94221.25;;;8.60;59.68
4469;BME280;2247;42.666;23.292;2022-12-24T06:16:21;94222.28;;;8.89;59.22
4469;BME280;2247;42.666;23.292;2022-12-24T06:18:48;94255.09;;;9.27;58.08
4469;BME280;2247;42.666;23.292;2022-12-24T06:21:16;94250.34;;;9.44;57.41
4469;BME280;2247;42.666;23.292;2022-12-24T06:23:45;94246.34;;;9.67;57.03
4469;BME280;2247;42.666;23.292;2022-12-24T06:26:14;94253.94;;;9.74;56.51
4469;BME280;2247;42.666;23.292;2022-12-24T06:28:42;94234.25;;;9.56;56.98
4469;BME280;2247;42.666;23.292;2022-12-24T06:31:11;94257.16;;;9.56;57.29
4469;BME280;2247;42.666;23.292;2022-12-24T06:33:38;94261.00;;;9.88;56.89
4469;BME280;2247;42.666;23.292;2022-12-24T06:36:06;94258.56;;;10.07;55.96
4469;BME280;2247;42.666;23.292;2022-12-24T06:38:33;94259.44;;;9.87;55.91
4469;BME280;2247;42.666;23.292;2022-12-24T06:41:05;94279.34;;;10.04;55.51
4469;BME280;2247;42.666;23.292;2022-12-24T06:43:32;94269.38;;;10.01;55.49
4469;BME280;2247;42.666;23.292;2022-12-24T06:46:00;94267.56;;;9.91;55.15
4469;BME280;2247;42.666;23.292;2022-12-24T06:48:28;94273.09;;;9.84;55.55
4469;BME280;2247;42.666;23.292;2022-12-24T06:50:56;94280.47;;;9.87;55.56
4469;BME280;2247;42.666;23.292;2022-12-24T06:53:23;94265.78;;;9.81;55.38
4469;BME280;2247;42.666;23.292;2022-12-24T06:55:51;94272.13;;;9.55;56.94
4469;BME280;2247;42.666;23.292;2022-12-24T06:58:19;94279.25;;;9.60;57.22
4469;BME280;2247;42.666;23.292;2022-12-24T07:00:46;94275.25;;;9.72;57.49
4469;BME280;2247;42.666;23.292;2022-12-24T07:03:13;94273.94;;;9.75;58.06
4469;BME280;2247;42.666;23.292;2022-12-24T07:05:40;94262.53;;;10.00;58.11
4469;BME280;2247;42.666;23.292;2022-12-24T07:08:07;94278.16;;;10.40;57.55
4469;BME280;2247;42.666;23.292;2022-12-24T07:10:34;94274.00;;;10.73;56.30
4469;BME280;2247;42.666;23.292;2022-12-24T07:13:01;94278.78;;;11.05;55.86
4469;BME280;2247;42.666;23.292;2022-12-24T07:15:29;94276.63;;;11.12;54.49
4469;BME280;2247;42.666;23.292;2022-12-24T07:17:56;94286.44;;;11.35;54.34
4469;BME280;2247;42.666;23.292;2022-12-24T07:20:24;94282.94;;;11.45;53.42
4469;BME280;2247;42.666;23.292;2022-12-24T07:22:50;94281.69;;;11.37;52.50
4469;BME280;2247;42.666;23.292;2022-12-24T07:25:17;94276.09;;;11.10;53.21
4469;BME280;2247;42.666;23.292;2022-12-24T07:27:44;94277.28;;;10.94;54.09
4469;BME280;2247;42.666;23.292;2022-12-24T07:30:11;94284.38;;;10.59;54.75
4469;BME280;2247;42.666;23.292;2022-12-24T07:32:41;94280.72;;;10.55;55.19
4469;BME280;2247;42.666;23.292;2022-12-24T07:35:09;94284.34;;;10.64;55.08
4469;BME280;2247;42.666;23.292;2022-12-24T07:37:36;94287.59;;;10.46;55.57
4469;BME280;2247;42.666;23.292;2022-12-24T07:40:04;94268.56;;;10.64;54.98
4469;BME280;2247;42.666;23.292;2022-12-24T07:42:34;94287.81;;;10.99;54.81
4469;BME280;2247;42.666;23.292;2022-12-24T07:45:01;94281.50;;;10.95;54.45
4469;BME280;2247;42.666;23.292;2022-12-24T07:47:28;94285.19;;;10.99;54.58
4469;BME280;2247;42.666;23.292;2022-12-24T07:49:56;94292.63;;;11.21;54.20
4469;BME280;2247;42.666;23.292;2022-12-24T07:52:24;94298.50;;;11.41;54.11
4469;BME280;2247;42.666;23.292;2022-12-24T07:54:50;94295.19;;;11.60;53.16
4469;BME280;2247;42.666;23.292;2022-12-24T07:57:17;94298.94;;;11.54;53.29
4469;BME280;2247;42.666;23.292;2022-12-24T07:59:44;94291.72;;;11.64;53.25
4469;BME280;2247;42.666;23.292;2022-12-24T08:02:12;94302.41;;;11.78;53.47
4469;BME280;2247;42.666;23.292;2022-12-24T08:04:39;94301.41;;;11.98;53.65
4469;BME280;2247;42.666;23.292;2022-12-24T08:07:08;94315.31;;;12.08;52.18
4469;BME280;2247;42.666;23.292;2022-12-24T08:09:36;94305.34;;;12.00;52.64
4469;BME280;2247;42.666;23.292;2022-12-24T08:12:04;94318.88;;;12.17;51.98
4469;BME280;2247;42.666;23.292;2022-12-24T08:14:31;94318.44;;;12.10;51.76
4469;BME280;2247;42.666;23.292;2022-12-24T08:16:58;94317.38;;;12.11;51.84
4469;BME280;2247;42.666;23.292;2022-12-24T08:19:25;94328.03;;;12.25;51.67
4469;BME280;2247;42.666;23.292;2022-12-24T08:21:51;94328.91;;;12.20;52.24
4469;BME280;2247;42.666;23.292;2022-12-24T08:24:21;94313.69;;;12.31;53.92
4469;BME280;2247;42.666;23.292;2022-12-24T08:26:48;94309.78;;;12.29;53.59
4469;BME280;2247;42.666;23.292;2022-12-24T08:29:15;94306.34;;;12.28;53.54
4469;BME280;2247;42.666;23.292;2022-12-24T08:31:41;94313.13;;;12.15;52.04
4469;BME280;2247;42.666;23.292;2022-12-24T08:34:09;94297.72;;;11.99;52.37
4469;BME280;2247;42.666;23.292;2022-12-24T08:36:36;94300.13;;;11.95;52.93
4469;BME280;2247;42.666;23.292;2022-12-24T08:39:03;94292.09;;;11.53;53.22
4469;BME280;2247;42.666;23.292;2022-12-24T08:41:34;94294.03;;;11.42;54.25
4469;BME280;2247;42.666;23.292;2022-12-24T08:44:01;94289.50;;;11.14;55.04
4469;BME280;2247;42.666;23.292;2022-12-24T08:46:28;94295.84;;;11.18;55.23
4469;BME280;2247;42.666;23.292;2022-12-24T08:48:55;94300.09;;;11.42;54.38
4469;BME280;2247;42.666;23.292;2022-12-24T08:51:22;94295.53;;;11.53;54.19
4469;BME280;2247;42.666;23.292;2022-12-24T08:54:07;94314.16;;;11.62;54.01
4469;BME280;2247;42.666;23.292;2022-12-24T08:56:35;94322.13;;;11.57;54.89
4469;BME280;2247;42.666;23.292;2022-12-24T08:59:02;94319.81;;;11.50;54.98
4469;BME280;2247;42.666;23.292;2022-12-24T09:01:29;94326.81;;;11.65;55.16
4469;BME280;2247;42.666;23.292;2022-12-24T09:03:56;94317.13;;;11.55;55.02
4469;BME280;2247;42.666;23.292;2022-12-24T09:06:24;94317.25;;;11.74;55.21
4469;BME280;2247;42.666;23.292;2022-12-24T09:08:51;94303.22;;;11.78;56.30
4469;BME280;2247;42.666;23.292;2022-12-24T09:11:19;94290.91;;;11.93;55.46
4469;BME280;2247;42.666;23.292;2022-12-24T09:13:48;94292.81;;;12.11;54.67
4469;BME280;2247;42.666;23.292;2022-12-24T09:16:15;94295.56;;;12.24;54.46
4469;BME280;2247;42.666;23.292;2022-12-24T09:18:42;94302.16;;;12.46;55.15
4469;BME280;2247;42.666;23.292;2022-12-24T09:21:11;94292.47;;;12.60;54.19
4469;BME280;2247;42.666;23.292;2022-12-24T09:23:40;94298.06;;;12.77;54.24
4469;BME280;2247;42.666;23.292;2022-12-24T09:26:15;94283.94;;;13.00;54.43
4469;BME280;2247;42.666;23.292;2022-12-24T09:28:42;94289.72;;;13.02;52.07
4469;BME280;2247;42.666;23.292;2022-12-24T09:31:12;94294.16;;;13.07;51.65
4469;BME280;2247;42.666;23.292;2022-12-24T09:33:40;94293.03;;;12.94;53.00
4469;BME280;2247;42.666;23.292;2022-12-24T09:36:08;94285.94;;;13.09;51.63
4469;BME280;2247;42.666;23.292;2022-12-24T09:38:36;94282.03;;;13.06;50.86
4469;BME280;2247;42.666;23.292;2022-12-24T09:41:12;94304.13;;;12.96;51.09
4469;BME280;2247;42.666;23.292;2022-12-24T09:43:44;94287.59;;;13.05;51.50
4469;BME280;2247;42.666;23.292;2022-12-24T09:46:19;94281.94;;;13.11;50.73
4469;BME280;2247;42.666;23.292;2022-12-24T09:48:50;94274.88;;;13.07;50.91
4469;BME280;2247;42.666;23.292;2022-12-24T09:51:24;94272.88;;;12.98;50.93
4469;BME280;2247;42.666;23.292;2022-12-24T09:53:56;94270.16;;;13.03;51.67
4469;BME280;2247;42.666;23.292;2022-12-24T09:56:27;94280.59;;;12.95;51.11
4469;BME280;2247;42.666;23.292;2022-12-24T09:58:58;94280.88;;;12.93;51.54
4469;BME280;2247;42.666;23.292;2022-12-24T10:01:28;94284.13;;;12.72;51.47
4469;BME280;2247;42.666;23.292;2022-12-24T10:03:56;94271.03;;;12.80;51.53
4469;BME280;2247;42.666;23.292;2022-12-24T10:06:29;94273.53;;;12.72;51.27
4469;BME280;2247;42.666;23.292;2022-12-24T10:09:10;94293.69;;;12.68;51.89
4469;BME280;2247;42.666;23.292;2022-12-24T10:11:44;94291.63;;;12.83;51.00
4469;BME280;2247;42.666;23.292;2022-12-24T10:14:30;94287.47;;;12.77;50.53
4469;BME280;2247;42.666;23.292;2022-12-24T10:17:11;94275.59;;;12.56;50.36
4469;BME280;2247;42.666;23.292;2022-12-24T10:19:49;94270.44;;;12.46;50.84
4469;BME280;2247;42.666;23.292;2022-12-24T10:22:23;94262.88;;;12.39;51.32
4469;BME280;2247;42.666;23.292;2022-12-24T10:24:56;94261.25;;;12.43;51.24
4469;BME280;2247;42.666;23.292;2022-12-24T10:27:31;94267.25;;;12.49;50.73
4469;BME280;2247;42.666;23.292;2022-12-24T10:30:01;94276.16;;;12.34;50.81
4469;BME280;2247;42.666;23.292;2022-12-24T10:32:34;94274.81;;;12.37;51.29
4469;BME280;2247;42.666;23.292;2022-12-24T10:35:07;94278.53;;;12.54;50.91
4469;BME280;2247;42.666;23.292;2022-12-24T10:37:38;94275.38;;;12.52;51.22
4469;BME280;2247;42.666;23.292;2022-12-24T10:40:13;94239.38;;;12.56;50.72
4469;BME280;2247;42.666;23.292;2022-12-24T10:42:42;94268.19;;;12.58;50.78
4469;BME280;2247;42.666;23.292;2022-12-24T10:45:16;94261.13;;;12.72;50.42
4469;BME280;2247;42.666;23.292;2022-12-24T10:47:47;94262.31;;;12.61;50.29
4469;BME280;2247;42.666;23.292;2022-12-24T10:50:20;94261.31;;;12.57;51.04
4469;BME280;2247;42.666;23.292;2022-12-24T10:52:50;94270.31;;;12.56;50.66
4469;BME280;2247;42.666;23.292;2022-12-24T10:55:22;94264.09;;;12.66;50.37
4469;BME280;2247;42.666;23.292;2022-12-24T10:57:59;94253.53;;;12.84;50.30
4469;BME280;2247;42.666;23.292;2022-12-24T11:00:28;94258.00;;;13.02;49.58
4469;BME280;2247;42.666;23.292;2022-12-24T11:03:20;94261.16;;;13.05;49.85
4469;BME280;2247;42.666;23.292;2022-12-24T11:05:59;94274.03;;;12.55;50.57
4469;BME280;2247;42.666;23.292;2022-12-24T11:08:27;94265.22;;;12.41;51.76
4469;BME280;2247;42.666;23.292;2022-12-24T11:10:58;94275.13;;;12.11;51.79
4469;BME280;2247;42.666;23.292;2022-12-24T11:13:27;94270.84;;;12.15;51.87
4469;BME280;2247;42.666;23.292;2022-12-24T11:16:01;94272.19;;;12.13;52.03
4469;BME280;2247;42.666;23.292;2022-12-24T11:18:32;94259.84;;;12.08;52.24
4469;BME280;2247;42.666;23.292;2022-12-24T11:21:02;94255.81;;;11.92;53.00
4469;BME280;2247;42.666;23.292;2022-12-24T11:23:29;94261.28;;;12.19;53.14
4469;BME280;2247;42.666;23.292;2022-12-24T11:25:57;94254.81;;;12.31;52.56
4469;BME280;2247;42.666;23.292;2022-12-24T11:28:26;94253.31;;;12.62;53.81
4469;BME280;2247;42.666;23.292;2022-12-24T11:31:01;94262.88;;;12.95;52.25
4469;BME280;2247;42.666;23.292;2022-12-24T11:33:29;94269.94;;;13.19;53.43
4469;BME280;2247;42.666;23.292;2022-12-24T11:36:09;94270.59;;;13.43;56.62
4469;BME280;2247;42.666;23.292;2022-12-24T11:38:39;94262.00;;;13.65;53.38
4469;BME280;2247;42.666;23.292;2022-12-24T11:41:10;94266.34;;;13.74;54.30
4469;BME280;2247;42.666;23.292;2022-12-24T11:43:42;94260.53;;;13.86;50.90
4469;BME280;2247;42.666;23.292;2022-12-24T11:46:18;94246.50;;;13.86;52.11
4469;BME280;2247;42.666;23.292;2022-12-24T11:48:47;94244.16;;;13.84;55.25
4469;BME280;2247;42.666;23.292;2022-12-24T11:51:22;94244.66;;;14.00;51.64
4469;BME280;2247;42.666;23.292;2022-12-24T11:53:56;94255.94;;;13.92;54.95
4469;BME280;2247;42.666;23.292;2022-12-24T11:56:31;94252.50;;;14.05;51.42
4469;BME280;2247;42.666;23.292;2022-12-24T11:59:04;94249.44;;;14.11;51.05
4469;BME280;2247;42.666;23.292;2022-12-24T12:01:41;94245.81;;;14.07;52.00
4469;BME280;2247;42.666;23.292;2022-12-24T12:04:15;94237.50;;;14.00;51.71
4469;BME280;2247;42.666;23.292;2022-12-24T12:06:47;94237.66;;;14.04;53.27
4469;BME280;2247;42.666;23.292;2022-12-24T12:09:19;94239.94;;;14.10;53.83
4469;BME280;2247;42.666;23.292;2022-12-24T12:11:50;94234.53;;;14.15;53.27
4469;BME280;2247;42.666;23.292;2022-12-24T12:14:21;94232.94;;;14.28;53.83
4469;BME280;2247;42.666;23.292;2022-12-24T12:16:57;94236.75;;;14.36;52.49
4469;BME280;2247;42.666;23.292;2022-12-24T12:19:31;94230.47;;;14.45;51.52
4469;BME280;2247;42.666;23.292;2022-12-24T12:22:05;94231.84;;;14.56;49.26
4469;BME280;2247;42.666;23.292;2022-12-24T12:24:38;94241.28;;;14.35;50.18
4469;BME280;2247;42.666;23.292;2022-12-24T12:27:29;94235.78;;;14.18;50.68
4469;BME280;2247;42.666;23.292;2022-12-24T12:30:00;94231.91;;;13.88;51.54
4469;BME280;2247;42.666;23.292;2022-12-24T12:32:40;94233.09;;;13.68;52.90
4469;BME280;2247;42.666;23.292;2022-12-24T12:35:17;94231.28;;;13.50;53.44
4469;BME280;2247;42.666;23.292;2022-12-24T12:37:53;94236.94;;;13.30;54.58
4469;BME280;2247;42.666;23.292;2022-12-24T12:40:30;94234.50;;;13.33;54.77
4469;BME280;2247;42.666;23.292;2022-12-24T12:43:03;94223.97;;;13.28;54.69
4469;BME280;2247;42.666;23.292;2022-12-24T12:45:38;94231.44;;;13.26;56.12
4469;BME280;2247;42.666;23.292;2022-12-24T12:51:12;94241.88;;;13.50;58.04
4469;BME280;2247;42.666;23.292;2022-12-24T12:54:03;94247.41;;;13.67;56.65
4469;BME280;2247;42.666;23.292;2022-12-24T12:56:33;94250.81;;;13.54;54.43
4469;BME280;2247;42.666;23.292;2022-12-24T12:59:03;94255.19;;;13.45;53.93
4469;BME280;2247;42.666;23.292;2022-12-24T13:01:53;94255.56;;;13.25;55.18
4469;BME280;2247;42.666;23.292;2022-12-24T13:04:46;94264.72;;;12.95;56.08
4469;BME280;2247;42.666;23.292;2022-12-24T13:07:47;94268.00;;;13.06;55.23
4469;BME280;2247;42.666;23.292;2022-12-24T13:14:04;94268.00;;;13.06;54.67
4469;BME280;2247;42.666;23.292;2022-12-24T13:16:55;94269.06;;;13.05;55.97
4469;BME280;2247;42.666;23.292;2022-12-24T13:19:40;94276.38;;;12.94;56.61
4469;BME280;2247;42.666;23.292;2022-12-24T13:22:14;94276.44;;;12.89;56.42
4469;BME280;2247;42.666;23.292;2022-12-24T13:24:47;94286.25;;;12.88;56.06
4469;BME280;2247;42.666;23.292;2022-12-24T13:27:17;94291.19;;;12.76;56.40
4469;BME280;2247;42.666;23.292;2022-12-24T13:29:53;94308.59;;;12.58;56.16
4469;BME280;2247;42.666;23.292;2022-12-24T13:32:48;94291.25;;;12.71;56.63
4469;BME280;2247;42.666;23.292;2022-12-24T13:35:33;94300.47;;;12.92;57.47
4469;BME280;2247;42.666;23.292;2022-12-24T13:44:25;94295.22;;;13.57;54.82
4469;BME280;2247;42.666;23.292;2022-12-24T13:47:00;94278.53;;;13.43;53.74